Date,TemperatureHighF,TemperatureAvgF,TemperatureLowF,DewpointHighF,DewpointAvgF,DewpointLowF,HumidityHigh,HumidityAvg,HumidityLow,PressureMaxIn,PressureMinIn,WindSpeedMaxMPH,WindSpeedAvgMPH,GustSpeedMaxMPH,PrecipitationSumIn
2013-1-1,37.1,32.0,20.7,27.3,21.4,7.8,75,65,53,29.96,29.80,5,2,11,0.00
2013-1-2,28.0,21.1,13.9,15.9,11.2,6.5,79,66,52,30.14,29.96,5,2,6,0.00
2013-1-3,26.0,18.4,8.4,15.4,6.6,-3.7,78,60,46,30.18,30.04,4,1,6,0.00
2013-1-4,36.4,26.4,18.5,25.1,19.8,14.5,93,77,61,30.04,29.88,4,1,12,0.00
2013-1-6,42.1,33.7,26.2,33.0,29.4,25.0,96,85,66,30.11,29.95,3,0,7,0.02
2013-1-7,39.1,29.2,19.8,29.8,23.6,17.6,96,81,55,30.41,30.00,5,1,8,0.00
2013-1-8,45.5,32.8,18.5,32.4,26.9,16.8,96,80,59,30.42,30.33,4,1,10,0.00
2013-1-9,43.9,35.1,22.3,38.3,30.5,20.9,96,84,66,30.40,30.09,3,1,5,0.01
2013-1-10,43.7,38.2,27.0,35.0,26.6,24.1,89,64,47,30.54,30.14,9,2,14,0.00
2013-1-11,42.3,32.7,23.4,41.5,29.9,21.7,97,90,73,30.54,30.17,3,1,6,0.21
2013-1-12,44.5,41.8,39.2,43.9,41.2,38.6,98,97,96,30.18,30.12,3,0,3,0.09
2013-1-13,47.9,43.9,38.5,46.6,43.2,38.0,99,98,92,30.16,30.02,3,1,5,0.01
2013-1-14,55.1,46.9,35.5,52.5,42.2,29.1,99,85,57,30.28,29.92,6,2,9,0.03
2013-1-15,37.6,34.5,32.1,31.8,29.9,27.2,95,83,72,30.33,30.21,3,1,4,0.10
2013-1-16,34.3,32.6,30.6,32.8,31.0,26.8,98,94,75,30.23,29.78,4,1,5,0.07
2013-1-17,41.2,34.2,29.7,32.7,28.4,17.8,98,81,60,30.09,29.88,5,2,8,0.23
2013-1-18,29.6,22.1,15.7,19.2,7.7,2.0,81,55,38,30.49,30.02,8,3,12,0.00
2013-1-19,43.6,36.7,16.2,35.0,27.1,10.5,80,69,52,30.41,29.92,6,2,10,0.02
2013-1-20,51.5,41.6,28.2,34.0,26.9,13.2,78,57,32,29.96,29.63,6,3,10,0.00
2013-1-21,28.5,25.3,19.4,23.7,15.6,10.1,92,68,48,30.10,29.79,4,1,5,0.00
2013-1-22,24.6,19.2,12.4,22.6,5.2,-4.3,94,56,35,30.12,29.77,6,2,11,0.00
2013-1-23,16.0,11.2,6.1,-0.3,-3.3,-5.0,65,52,40,30.20,30.11,6,2,9,0.00
2013-1-24,18.5,10.9,2.0,1.8,-3.8,-7.9,80,53,33,30.31,30.14,8,3,17,0.00
2013-1-25,23.2,16.4,9.8,14.9,2.2,-3.0,88,55,34,30.37,30.06,5,2,7,0.00
2013-1-26,23.5,16.6,9.7,13.8,7.7,3.0,91,69,47,30.32,30.02,6,2,9,0.00
2013-1-27,30.1,20.7,12.5,9.7,4.9,0.2,80,53,29,30.49,30.31,6,2,8,0.00
2013-1-28,32.9,25.6,16.3,31.9,19.6,2.6,96,79,43,30.48,30.00,2,0,5,0.03
2013-1-29,38.6,34.2,29.9,35.4,32.2,28.5,97,92,84,30.19,29.99,3,1,5,0.16
2013-1-30,56.4,49.3,36.3,55.5,48.8,35.4,99,98,97,30.14,29.47,6,2,9,0.06
2013-1-31,58.2,56.3,53.3,57.1,55.2,52.5,98,96,94,29.47,29.05,9,6,13,0.59
2013-2-1,28.6,23.9,19.0,12.5,7.9,6.0,60,50,42,30.15,29.88,6,3,9,0.00
2013-2-2,28.2,20.2,11.5,13.7,9.5,6.9,87,64,43,30.28,30.10,4,1,9,0.00
2013-2-3,30.3,24.1,17.6,19.5,17.0,14.8,92,75,56,29.98,29.76,4,1,5,0.00
2013-2-4,29.0,23.9,16.7,16.9,10.9,5.6,91,60,41,29.97,29.76,5,2,10,0.00
2013-2-5,25.5,23.8,22.0,22.3,17.6,8.3,90,78,55,30.02,29.92,3,1,6,0.00
2013-2-6,37.4,30.1,24.7,27.0,19.3,2.7,92,67,35,30.33,29.92,4,2,13,0.01
2013-2-7,31.6,25.0,16.8,15.8,8.8,3.1,71,51,35,30.52,30.33,4,2,6,0.00
2013-2-8,31.7,28.2,22.5,30.8,24.9,11.6,97,88,55,30.43,29.54,13,6,20,0.00
2013-2-9,24.9,21.4,16.6,21.9,13.3,0.1,95,74,37,30.26,29.58,11,7,22,0.00
2013-2-10,35.2,20.7,3.7,14.1,5.1,-1.0,90,55,23,30.45,30.25,5,1,9,0.00
2013-2-11,45.6,35.0,16.2,45.1,33.5,13.5,99,94,83,30.37,29.65,5,1,6,0.36
2013-2-12,42.9,38.6,30.9,40.8,30.6,25.2,98,74,57,29.92,29.66,4,1,8,0.00
2013-2-13,41.2,34.4,24.5,27.6,24.9,20.8,86,69,52,29.91,29.67,3,1,6,0.00
2013-2-14,42.2,33.6,25.3,29.1,25.5,22.1,95,74,45,30.01,29.71,6,1,7,0.00
2013-2-15,47.2,38.2,31.0,37.0,34.1,28.7,97,86,67,30.02,29.93,4,1,6,0.00
2013-2-16,35.7,33.3,28.1,34.3,28.1,21.1,97,82,59,29.95,29.69,7,3,9,0.02
2013-2-17,28.0,22.4,15.4,24.1,8.3,1.6,88,56,38,29.81,29.50,11,6,14,0.00
2013-2-18,30.1,21.0,14.0,11.6,4.4,0.9,74,50,30,30.21,29.81,8,4,13,0.00
2013-2-19,45.2,31.8,18.6,40.0,24.6,9.7,96,75,59,30.22,29.78,5,1,7,0.17
2013-2-20,34.4,29.4,23.1,25.7,14.0,9.5,76,53,44,29.87,29.67,6,3,14,0.00
2013-2-21,30.3,24.9,21.4,15.9,13.8,11.6,71,63,53,30.26,29.86,8,4,15,0.00
2013-2-22,38.9,29.9,20.1,27.7,21.5,14.8,84,71,51,30.40,30.25,6,2,9,0.00
2013-2-23,37.6,34.4,32.2,34.6,31.3,26.2,96,88,78,30.31,29.83,6,2,10,0.24
2013-2-24,39.1,36.1,34.1,37.6,35.0,33.1,97,96,91,29.83,29.69,8,4,14,0.23
2013-2-25,40.7,35.8,27.8,31.4,29.6,24.9,94,78,68,30.25,30.02,4,1,5,0.01
2013-2-26,40.0,35.0,29.2,31.9,29.5,26.5,95,81,62,30.32,30.06,5,2,11,0.03
2013-2-27,43.3,39.8,34.4,41.9,38.7,31.6,98,96,89,30.06,29.56,11,5,19,1.48
2013-2-28,44.3,37.9,33.9,42.2,36.7,33.4,98,95,86,29.63,29.53,3,0,4,0.04
2013-3-1,44.1,38.4,33.2,34.8,31.1,27.4,96,76,57,29.71,29.54,6,2,10,0.00
2013-3-2,38.2,34.8,31.2,29.8,27.4,26.2,84,75,65,29.72,29.65,4,2,6,0.00
2013-3-3,36.2,31.5,28.5,27.1,24.7,22.6,86,76,62,29.67,29.60,5,3,9,0.00
2013-3-4,37.5,31.3,26.7,25.4,22.4,20.5,78,70,57,29.80,29.66,8,5,15,0.00
2013-3-5,44.8,35.5,27.9,30.1,26.2,21.3,89,69,54,30.05,29.81,7,3,9,0.00
2013-3-6,40.0,36.1,31.1,35.2,32.2,28.2,93,86,73,30.02,29.93,13,7,23,0.02
2013-3-7,36.8,33.7,31.3,31.2,29.7,27.9,97,86,73,30.00,29.90,13,9,20,0.00
2013-3-8,36.4,32.7,30.7,32.9,30.6,27.3,98,92,72,30.13,29.92,7,4,15,0.08
2013-3-9,52.2,39.0,28.2,27.4,23.9,14.4,88,58,25,30.34,30.13,8,3,13,0.17
2013-3-10,47.6,34.9,23.3,34.5,29.4,21.8,95,82,54,30.40,30.31,4,1,6,0.00
2013-3-11,49.4,41.3,34.5,42.1,37.8,32.4,97,88,75,30.33,30.13,4,1,6,0.00
2013-3-12,52.8,48.7,41.6,52.3,47.2,39.5,98,94,86,30.14,29.72,7,3,11,1.38
2013-3-13,48.2,40.8,33.1,39.4,29.8,24.5,91,67,42,29.82,29.75,6,3,11,0.00
2013-3-14,37.8,30.6,27.5,29.1,19.0,11.9,92,63,44,29.87,29.78,8,3,14,0.00
2013-3-15,40.6,32.5,24.6,29.8,18.8,11.1,81,58,34,29.92,29.70,7,2,11,0.00
2013-3-16,38.6,33.7,28.5,28.5,20.7,10.0,88,61,32,29.88,29.73,5,2,8,0.00
2013-3-17,36.0,31.1,25.3,28.5,13.8,7.7,88,51,31,30.30,29.88,8,3,13,0.00
2013-3-18,36.3,28.8,20.7,27.9,12.3,2.5,94,53,27,30.44,30.13,6,3,9,0.00
2013-3-19,38.0,33.6,29.5,35.5,31.9,28.0,95,93,87,30.13,29.61,8,4,14,0.43
2013-3-20,40.6,33.4,27.1,31.0,21.6,17.2,92,64,42,29.82,29.72,5,2,10,0.00
2013-3-21,35.2,30.7,28.4,26.8,24.3,17.1,87,77,59,29.83,29.62,5,2,8,0.00
2013-3-22,39.7,32.4,24.1,24.3,18.6,13.5,73,57,42,29.81,29.66,5,2,11,0.00
2013-3-23,42.9,36.2,30.1,25.1,21.6,17.7,75,57,36,29.86,29.71,8,3,15,0.00
2013-3-24,36.0,31.7,29.4,23.4,21.7,19.9,73,67,57,29.88,29.81,4,1,15,0.00
2013-3-25,43.5,38.2,31.8,32.2,28.8,25.8,90,69,50,29.67,29.44,15,6,18,0.00
2013-3-26,46.6,38.7,28.5,30.9,27.8,22.4,85,66,43,29.81,29.53,5,2,15,0.00
2013-3-27,50.3,32.0,24.7,28.8,25.3,22.8,94,79,42,29.86,29.80,5,1,15,0.00
2013-3-28,47.7,42.9,34.8,36.1,32.9,29.9,86,69,50,30.04,29.90,5,2,15,0.00
2013-3-29,56.3,46.3,36.3,35.2,31.7,28.4,84,59,37,30.08,29.99,5,2,15,0.00
2013-3-30,55.1,45.0,33.1,33.1,26.6,17.5,85,52,23,30.12,30.03,6,2,15,0.00
2013-3-31,56.2,41.4,28.7,43.7,32.1,24.7,95,72,36,30.14,29.65,7,2,15,0.17
2013-4-1,59.2,46.2,34.3,47.8,39.8,18.5,97,80,50,29.83,29.56,8,3,15,0.14
2013-4-2,40.9,34.5,25.7,22.5,15.7,9.2,81,48,28,30.00,29.83,6,2,15,0.00
2013-4-3,43.8,35.9,28.8,17.5,14.5,11.2,57,42,29,30.23,30.00,7,3,15,0.00
2013-4-4,49.8,38.6,27.0,32.6,21.7,13.8,83,53,26,30.35,30.09,5,2,15,0.00
2013-4-5,59.0,45.4,37.5,35.5,27.8,16.6,84,55,24,30.09,29.66,8,3,15,0.00
2013-4-6,47.7,38.6,31.2,25.4,15.2,4.8,72,41,18,30.33,29.92,9,4,15,0.00
2013-4-7,51.4,41.3,27.5,43.1,33.6,23.6,93,75,52,30.33,30.04,8,3,15,0.00
2013-4-8,67.7,53.2,40.9,44.7,41.5,38.2,97,68,35,30.08,29.98,5,1,15,0.00
2013-4-9,75.5,59.9,46.6,54.4,46.2,41.2,97,65,33,30.06,29.88,7,2,15,0.01
2013-4-10,67.0,53.9,47.1,52.5,47.6,43.8,96,80,58,29.95,29.83,7,2,15,0.22
2013-4-11,58.6,50.6,45.0,48.2,44.9,34.3,97,82,60,30.10,29.80,6,2,15,0.00
2013-4-12,45.0,41.0,38.2,37.8,35.1,30.5,95,80,61,30.10,29.74,10,5,18,0.40
2013-4-13,53.3,44.3,37.4,39.8,36.2,34.1,95,75,48,29.94,29.72,7,3,15,0.02
2013-4-14,45.9,42.1,39.3,38.5,37.4,36.1,90,84,69,29.96,29.93,1,0,15,0.00
2013-4-15,54.8,47.0,34.7,37.3,32.6,28.9,90,59,44,30.40,30.29,5,2,15,0.00
2013-4-16,59.5,49.4,36.1,50.4,44.0,35.3,97,83,62,30.40,30.13,6,2,15,0.00
2013-4-17,65.6,56.5,44.7,52.8,41.2,31.1,93,60,29,30.31,30.10,6,2,15,0.01
2013-4-18,58.2,49.2,37.5,48.3,38.3,30.9,95,70,36,30.39,30.14,7,3,15,0.00
2013-4-19,68.3,58.4,50.8,62.0,56.9,48.6,99,95,79,30.14,29.68,6,3,15,0.07
2013-4-20,60.7,51.5,43.1,60.2,49.9,40.9,99,94,78,29.86,29.63,5,2,15,0.33
2013-4-21,53.0,44.9,36.7,33.1,25.7,19.9,77,49,28,30.66,30.49,6,3,15,0.00
2013-4-22,53.4,43.4,31.8,35.5,31.1,25.3,92,65,35,30.70,30.55,8,4,15,0.00
2013-4-23,44.4,41.2,38.2,41.4,37.5,31.3,93,87,74,30.55,30.06,8,5,15,0.00
2013-4-24,68.1,51.6,41.5,48.4,43.8,39.3,97,77,41,30.06,29.86,6,3,15,0.00
2013-4-25,61.1,52.7,41.1,50.6,37.5,22.2,97,61,25,30.26,29.88,6,2,15,0.05
2013-4-26,64.6,50.9,33.9,39.0,33.4,29.1,89,55,29,30.39,30.26,5,2,15,0.00
2013-4-27,64.0,49.9,37.6,43.1,39.3,32.7,96,70,32,30.41,30.30,6,2,15,0.00
2013-4-28,65.3,52.2,37.2,45.1,36.5,28.3,97,62,30,30.33,30.23,6,2,15,0.00
2013-4-29,61.9,53.0,45.7,47.7,40.6,27.1,95,67,29,30.27,30.23,5,2,15,0.00
2013-4-30,65.9,54.4,43.6,40.8,32.6,18.8,75,48,21,30.34,30.24,6,1,15,0.00
2013-5-1,67.7,52.0,36.0,47.0,39.5,30.2,92,65,39,30.49,30.34,5,2,15,0.00
2013-5-2,73.3,56.7,39.3,48.2,42.2,34.2,97,63,32,30.46,30.32,7,2,15,0.00
2013-5-3,63.6,53.6,45.3,46.4,41.2,33.5,93,64,48,30.47,30.35,8,4,15,0.00
2013-5-4,66.6,52.3,40.9,46.1,41.7,36.4,95,71,35,30.37,30.24,8,2,15,0.00
2013-5-5,64.2,48.6,35.7,45.8,40.4,34.3,96,76,43,30.31,30.22,5,2,15,0.00
2013-5-6,68.8,55.5,44.0,51.5,46.0,40.4,92,72,49,30.27,30.15,4,2,15,0.00
2013-5-7,72.7,58.9,42.8,58.8,51.7,41.7,96,79,57,30.18,30.10,5,2,15,0.00
2013-5-8,67.9,60.3,55.9,62.4,58.0,54.5,98,92,79,30.15,30.02,9,2,15,0.52
2013-5-9,63.9,57.5,52.9,59.8,56.4,52.6,99,96,83,30.02,29.86,3,1,15,0.38
2013-5-10,77.2,64.3,50.2,60.7,55.2,49.7,99,75,43,29.98,29.91,3,1,15,0.00
2013-5-11,65.8,59.5,55.9,62.0,58.1,54.0,99,95,85,29.92,29.69,4,1,15,0.42
2013-5-12,69.9,60.1,50.5,58.7,51.3,30.3,99,76,42,29.84,29.60,4,1,15,0.03
2013-5-13,57.9,49.7,41.3,37.3,31.5,26.3,77,51,32,30.05,29.84,3,1,15,0.00
2013-5-14,57.4,47.7,37.4,35.9,31.9,27.4,86,57,35,30.08,30.00,3,1,15,0.00
2013-5-15,61.9,51.0,36.3,53.3,44.9,34.1,98,82,46,30.09,29.69,5,1,15,0.00
2013-5-16,79.4,62.1,46.3,56.1,47.8,38.3,98,66,24,29.80,29.68,3,1,15,0.00
2013-5-17,68.5,59.7,49.3,51.3,44.5,39.3,91,59,37,30.21,29.80,5,1,15,0.00
2013-5-18,70.4,57.3,44.0,53.4,47.7,40.7,96,73,35,30.31,30.21,3,1,15,0.00
2013-5-19,61.6,55.4,47.0,55.6,52.3,45.6,98,90,74,30.35,30.20,2,1,15,0.28
2013-5-20,78.3,65.5,55.8,67.7,61.5,55.2,99,88,66,30.20,29.93,2,0,15,0.02
2013-5-21,84.7,71.2,58.4,71.0,65.1,57.2,99,82,60,29.96,29.82,4,1,15,0.00
2013-5-22,75.3,62.1,52.7,68.3,59.3,51.0,97,91,79,29.96,29.84,5,1,15,0.05
2013-5-23,73.0,65.4,63.1,68.6,64.0,62.1,98,95,85,29.92,29.79,3,1,15,0.48
2013-5-24,71.3,60.4,46.7,65.1,58.2,45.8,99,93,78,29.84,29.65,4,1,15,0.62
2013-5-25,47.5,45.4,42.4,46.2,43.7,39.6,98,94,88,29.84,29.77,6,3,15,0.06
2013-5-26,58.0,49.7,42.2,45.9,41.8,39.8,93,75,55,30.16,29.81,5,2,15,0.00
2013-5-27,70.9,56.4,39.4,46.5,41.5,35.9,98,64,29,30.20,30.09,3,1,15,0.00
2013-5-28,72.8,57.9,44.1,56.3,49.0,42.8,96,76,36,30.22,30.15,2,0,15,0.02
2013-5-29,74.3,64.2,56.9,67.1,61.4,55.8,98,91,76,30.16,30.00,3,1,15,0.20
2013-5-30,89.7,74.5,60.1,72.8,66.3,59.5,99,78,50,30.10,30.01,3,0,15,0.02
2013-5-31,92.1,76.7,63.5,74.6,66.6,62.5,98,74,45,30.09,29.97,2,0,15,0.00
2013-6-1,87.9,74.2,62.4,71.3,66.3,61.2,97,78,53,30.00,29.89,2,0,15,0.00
2013-6-2,82.7,70.9,63.8,70.1,65.4,62.6,96,84,63,29.91,29.77,2,1,15,0.00
2013-6-3,71.8,66.3,63.3,67.9,64.0,53.0,98,93,69,29.84,29.78,2,0,15,0.70
2013-6-4,69.9,61.3,51.5,53.2,46.4,40.8,92,59,42,30.09,29.84,3,2,15,0.00
2013-6-5,74.0,60.6,49.2,52.3,49.1,44.6,94,69,37,30.20,30.09,3,0,15,0.00
2013-6-6,70.4,59.1,50.5,59.2,53.9,48.8,98,84,54,30.18,30.07,3,1,15,0.09
2013-6-7,59.6,57.4,55.1,58.8,56.5,54.1,98,97,94,30.07,29.71,5,2,15,3.77
2013-6-8,75.9,63.8,53.7,66.3,59.6,53.1,99,88,66,30.02,29.57,3,1,15,0.75
2013-6-9,78.3,66.9,55.0,62.5,59.1,54.4,98,78,51,30.17,30.02,2,0,15,0.00
2013-6-10,70.5,62.9,56.8,63.9,59.5,55.7,98,89,72,30.17,29.91,6,2,15,0.65
2013-6-11,77.2,65.4,58.9,68.8,63.3,57.9,99,93,71,29.92,29.55,5,1,15,1.00
2013-6-12,70.0,64.2,56.3,62.0,54.9,52.3,94,73,55,29.83,29.60,5,2,15,0.00
2013-6-13,59.5,55.6,51.3,57.1,54.1,50.5,97,94,89,29.82,29.56,7,2,15,0.91
2013-6-14,69.5,58.7,52.0,57.3,53.3,50.9,97,83,57,29.83,29.55,6,2,15,0.65
2013-6-15,76.4,65.3,53.9,57.0,53.0,45.6,98,69,35,29.96,29.82,3,1,15,0.00
2013-6-16,77.3,65.3,51.6,65.2,58.8,50.5,97,81,48,29.97,29.74,2,0,15,0.00
2013-6-17,83.1,69.6,58.6,67.4,63.0,58.0,98,82,54,29.92,29.80,6,0,15,0.01
2013-6-18,79.7,66.3,58.3,69.4,61.9,57.7,98,87,58,29.91,29.81,4,1,15,0.13
2013-6-19,74.3,64.2,55.2,58.8,54.3,43.7,96,74,36,30.15,29.87,5,1,15,0.00
2013-6-20,77.2,64.0,50.0,59.0,53.7,46.4,97,72,37,30.27,30.15,2,0,15,0.00
2013-6-21,79.9,67.8,55.3,64.9,58.9,53.9,96,75,57,30.28,30.21,2,0,15,0.00
2013-6-22,80.7,68.1,56.6,63.4,59.1,54.3,93,75,51,30.25,30.14,2,0,15,0.00
2013-6-23,86.2,72.9,60.1,70.7,65.8,59.1,97,80,55,30.18,30.04,2,1,15,0.00
2013-6-24,91.3,78.6,70.2,76.5,71.0,65.8,97,79,54,30.05,29.89,2,0,15,0.00
2013-6-25,91.1,77.2,65.9,73.8,69.5,64.2,95,79,51,29.95,29.74,2,0,15,0.01
2013-6-26,84.1,75.6,68.7,73.5,70.6,67.8,98,85,65,29.83,29.73,1,0,15,0.00
2013-6-27,76.7,71.3,67.6,72.1,69.3,66.7,99,94,85,29.82,29.66,4,1,15,0.08
2013-6-28,79.5,72.9,68.3,73.5,70.6,67.4,99,93,79,29.66,29.50,3,1,15,0.10
2013-6-29,78.7,73.3,69.6,70.8,69.8,68.7,98,89,75,29.72,29.49,2,0,15,0.01
2013-6-30,81.0,72.7,70.3,73.8,70.4,69.0,98,93,79,29.93,29.72,2,0,15,0.13
2013-7-1,76.4,72.5,70.8,74.4,71.9,70.2,99,98,93,30.07,29.93,1,0,15,0.14
2013-7-2,79.1,73.8,71.4,74.3,72.2,71.0,99,95,84,30.18,30.07,1,0,15,0.07
2013-7-3,84.3,75.6,69.5,75.6,72.0,68.9,99,89,72,30.23,30.17,2,0,15,0.00
2013-7-4,87.0,78.9,72.2,77.6,74.0,71.4,98,86,69,30.23,30.13,2,0,15,0.00
2013-7-5,91.0,80.3,71.0,77.8,73.7,70.1,98,81,59,30.18,30.07,2,0,15,0.00
2013-7-6,91.4,80.8,71.2,76.9,73.2,70.0,96,79,59,30.10,29.98,2,0,15,0.00
2013-7-7,93.0,81.0,71.2,79.1,74.2,70.4,98,81,58,30.02,29.89,2,0,15,0.00
2013-7-8,88.8,78.8,70.1,74.9,71.6,68.6,96,80,59,30.01,29.92,2,0,15,0.00
2013-7-9,83.8,73.5,69.1,73.7,70.7,67.2,99,92,69,30.08,30.00,3,1,15,0.63
2013-7-10,83.5,75.9,72.0,76.7,73.2,71.2,98,92,79,30.03,29.80,2,0,15,0.01
2013-7-11,79.9,74.5,68.5,75.3,72.4,67.5,99,93,83,29.91,29.79,1,0,15,0.64
2013-7-12,77.6,71.3,67.6,68.8,65.4,60.3,97,82,71,30.14,29.90,6,3,15,0.00
2013-7-13,78.8,71.7,65.8,75.0,69.2,61.4,98,92,80,30.29,30.14,3,1,15,0.01
2013-7-14,89.1,78.7,72.2,77.6,74.0,71.8,99,87,62,30.31,30.20,3,0,15,0.00
2013-7-15,89.4,79.7,71.8,77.4,73.5,70.5,99,83,55,30.21,30.10,3,0,15,0.00
2013-7-16,89.4,79.8,70.4,74.2,71.6,68.3,98,78,52,30.16,30.09,3,1,15,0.00
2013-7-17,91.5,79.8,70.3,77.1,73.0,69.1,97,81,54,30.17,30.04,0,0,15,0.00
2013-7-18,94.5,82.0,72.0,79.3,74.4,70.1,96,80,51,30.04,29.93,0,0,15,0.00
2013-7-19,86.1,76.7,74.8,78.4,74.7,73.7,98,94,75,29.94,29.90,0,0,15,0.00
2013-7-23,85.9,76.2,70.2,76.8,72.9,69.6,99,91,69,29.70,29.55,2,0,15,0.35
2013-7-24,83.4,74.8,68.6,73.7,68.8,60.6,99,83,67,29.90,29.58,2,1,15,0.01
2013-7-25,68.6,60.6,57.3,61.4,56.9,52.3,97,88,71,30.07,29.90,3,2,15,1.03
2013-7-26,71.4,64.6,59.7,65.9,62.4,58.6,98,93,80,30.03,29.96,3,1,15,0.33
2013-7-27,82.4,71.7,62.6,68.9,65.6,61.1,99,83,51,30.05,29.97,2,0,15,0.00
2013-7-28,82.8,72.3,65.7,70.2,66.7,62.0,98,84,54,30.00,29.93,2,0,15,0.00
2013-7-29,84.8,73.9,65.0,73.2,69.2,62.0,98,86,66,30.04,29.95,2,0,15,0.00
2013-7-30,79.3,69.1,59.5,63.2,60.8,58.4,96,77,52,30.12,30.04,3,0,15,0.00
2013-7-31,79.8,68.6,58.1,65.7,61.8,57.3,98,81,54,30.13,30.04,2,0,15,0.00
2013-8-1,76.5,67.3,61.8,68.9,64.4,61.0,99,91,72,30.04,29.85,3,0,15,0.04
2013-8-2,81.3,71.5,64.4,67.9,64.8,60.9,99,81,56,29.87,29.77,2,0,15,0.08
2013-8-3,74.1,67.6,61.3,67.5,64.3,60.4,97,89,77,29.88,29.80,3,0,15,0.08
2013-8-4,77.6,66.4,56.7,64.6,59.6,55.5,99,80,54,29.91,29.79,2,0,15,0.02
2013-8-5,73.1,64.4,54.0,57.2,53.3,47.6,97,70,42,30.04,29.91,4,1,15,0.00
2013-8-6,77.3,64.6,51.8,62.0,55.9,51.0,97,76,46,30.13,30.04,3,1,15,0.00
2013-8-7,75.8,66.2,56.5,64.0,60.2,55.9,98,82,56,30.18,30.10,3,1,15,0.00
2013-8-8,78.5,71.3,66.1,72.4,68.8,64.0,98,92,81,30.10,30.01,1,0,15,0.02
2013-8-9,75.3,72.8,71.4,74.8,72.1,70.4,99,98,94,30.03,29.77,3,0,15,0.88
2013-8-10,81.6,72.6,64.3,71.7,65.4,54.0,99,80,55,30.01,29.80,3,0,15,0.00
2013-8-11,77.6,66.2,53.1,60.8,55.9,50.4,94,72,43,30.10,30.01,3,1,15,0.00
2013-8-12,79.2,69.3,60.8,66.2,62.6,57.9,98,81,51,30.03,29.92,2,0,15,0.00
2013-8-13,71.9,67.6,62.9,69.4,66.1,61.8,99,95,82,29.93,29.68,3,0,15,0.07
2013-8-14,71.9,65.6,58.6,65.2,55.7,52.6,98,72,54,29.99,29.69,4,1,15,0.00
2013-8-15,75.1,66.7,56.5,57.5,54.6,50.7,92,67,44,30.13,29.99,2,0,15,0.00
2013-8-16,80.4,65.9,54.1,62.3,56.7,53.1,98,76,41,30.20,30.11,3,0,15,0.00
2013-8-17,80.1,67.2,55.1,65.2,59.4,54.3,98,78,45,30.27,30.20,2,0,15,0.00
2013-8-18,76.2,66.3,59.8,66.0,61.3,57.4,98,85,53,30.26,30.11,2,0,15,0.00
2013-8-19,79.0,68.4,57.9,66.6,62.6,57.1,98,83,61,30.11,29.98,2,0,15,0.02
2013-8-20,82.3,71.4,61.7,66.7,63.6,60.9,99,79,50,30.11,30.00,2,0,15,0.00
2013-8-21,85.9,72.7,60.9,71.1,64.4,60.3,98,78,47,30.15,30.04,2,0,15,0.00
2013-8-22,76.7,70.7,64.2,72.8,69.2,63.6,99,95,87,30.05,29.84,1,0,15,0.25
2013-8-23,77.3,70.7,61.6,69.9,64.0,59.0,98,81,55,30.09,29.83,4,1,15,0.00
2013-8-24,74.5,64.3,54.0,59.9,54.9,51.6,95,74,46,30.35,30.10,4,1,15,0.00
2013-8-25,81.1,66.1,53.8,63.4,56.1,46.2,98,75,33,30.37,30.20,2,0,15,0.00
2013-8-26,77.3,68.6,62.3,67.8,63.5,59.6,98,84,69,30.21,29.90,1,0,15,0.43
2013-8-27,80.2,71.6,67.7,73.2,69.2,67.2,99,93,74,29.90,29.80,4,1,15,0.54
2013-8-28,82.6,71.9,66.9,74.0,69.2,66.3,99,92,73,29.90,29.82,3,0,15,0.01
2013-8-29,71.5,67.3,61.8,67.8,64.8,60.1,98,92,82,30.04,29.90,4,2,15,0.00
2013-8-30,78.3,67.5,59.4,70.9,64.7,58.3,98,91,75,30.02,29.85,2,0,15,0.00
2013-8-31,78.4,72.9,69.4,73.5,70.9,68.7,99,94,84,29.85,29.79,1,0,15,0.00
2013-9-1,78.4,73.9,70.6,74.4,72.3,70.0,99,95,86,29.85,29.80,1,0,15,0.02
2013-9-2,76.0,73.0,70.3,74.9,72.3,69.5,100,98,89,29.83,29.68,1,0,15,0.96
2013-9-3,75.3,69.9,60.7,72.2,68.7,59.0,99,96,89,29.84,29.68,1,0,15,0.20
2013-9-4,76.0,66.0,56.7,62.9,59.6,56.1,99,82,56,29.95,29.83,2,0,15,0.00
2013-9-5,72.1,62.7,52.0,63.0,55.9,47.7,99,81,50,30.13,29.88,3,1,15,0.00
2013-9-6,58.7,49.8,45.7,50.2,47.3,44.2,96,91,68,30.24,30.13,2,0,15,0.00
2013-9-17,60.2,51.2,40.6,46.2,41.5,37.1,96,72,47,30.42,30.32,6,2,15,0.00
2013-9-18,65.7,47.9,40.5,52.8,45.2,39.7,97,91,63,30.35,30.18,0,0,15,0.00
2013-9-19,73.2,58.8,47.2,58.7,52.1,46.7,99,82,46,30.18,30.06,2,0,15,0.00
2013-9-20,74.2,60.4,48.1,61.1,54.8,47.6,99,84,56,30.09,30.01,2,0,15,0.00
2013-9-21,72.1,63.6,53.7,67.4,61.1,53.1,99,92,80,30.03,29.70,2,1,15,0.01
2013-9-22,69.2,62.1,50.6,67.4,56.3,44.3,99,82,59,29.86,29.63,3,1,15,1.13
2013-9-23,60.6,51.8,43.7,48.1,44.9,41.7,94,78,59,30.02,29.85,4,1,15,0.00
2013-9-24,65.6,51.4,40.4,49.6,44.6,39.4,97,80,48,30.02,29.84,3,0,15,0.00
2013-9-25,66.7,55.8,43.7,55.5,49.7,42.9,98,82,55,29.96,29.87,2,0,15,0.00
2013-9-26,62.8,56.2,48.4,54.4,51.1,47.6,97,84,64,30.11,29.96,2,0,15,0.00
2013-9-27,62.8,55.8,48.3,54.9,52.0,47.5,97,88,71,30.27,30.11,2,0,15,0.00
2013-9-28,69.9,57.4,46.8,57.4,52.3,46.3,98,85,57,30.32,30.25,4,0,15,0.00
2013-9-29,65.8,55.4,46.2,55.5,49.9,42.8,99,84,44,30.25,30.10,3,0,15,0.00
2013-9-30,68.0,55.3,45.9,55.8,50.4,45.1,98,85,56,30.11,29.96,2,0,15,0.00
2013-10-1,74.4,58.2,46.2,61.0,53.7,45.7,99,87,54,29.98,29.87,2,0,15,0.00
2013-10-2,76.9,64.0,52.2,64.0,58.7,51.7,99,85,58,29.98,29.87,3,0,15,0.00
2013-10-3,74.3,62.4,51.0,60.7,53.8,41.6,98,78,32,30.10,29.99,2,0,15,0.01
2013-10-4,72.7,61.8,53.9,66.3,59.0,53.3,98,91,78,30.07,29.99,3,0,15,0.00
2013-10-5,72.4,62.9,58.1,64.7,60.1,56.8,97,91,76,30.10,30.02,3,0,15,0.01
2013-10-6,61.2,59.6,56.9,60.5,58.6,55.8,99,97,93,30.16,30.07,3,1,15,0.48
2013-10-7,71.9,65.1,59.3,69.8,64.3,58.5,100,97,89,30.08,29.82,3,1,15,0.17
2013-10-8,63.6,56.2,48.4,58.3,47.6,40.6,94,75,43,30.34,29.91,4,1,15,0.00
2013-10-9,62.7,52.9,44.7,49.4,45.4,41.4,92,77,51,30.43,30.33,6,1,15,0.00
2013-10-10,63.2,55.0,47.4,56.2,51.0,45.3,95,86,76,30.33,30.12,4,2,15,0.00
2013-10-11,67.9,59.8,53.3,59.3,54.9,45.8,96,84,72,30.12,30.05,6,2,15,0.00
2013-10-12,69.6,58.4,50.8,57.4,51.5,44.9,87,78,62,30.34,30.10,7,3,15,0.00
2013-10-13,59.4,54.1,48.1,51.6,49.3,45.8,92,84,73,30.41,30.32,5,1,15,0.00
2013-10-14,63.4,50.4,38.4,50.8,44.6,37.4,98,83,48,30.39,30.26,2,0,15,0.00
2013-10-15,67.9,53.8,43.7,52.6,47.7,42.9,98,82,52,30.27,30.16,3,0,15,0.00
2013-10-16,64.9,56.2,47.7,56.9,52.2,46.6,98,87,71,30.16,29.92,3,0,15,0.00
2013-10-17,68.1,61.3,53.7,61.5,59.0,52.7,98,92,79,29.91,29.72,2,0,15,0.01
2013-10-18,66.3,62.3,57.1,62.0,53.9,44.8,98,76,49,29.83,29.63,3,1,15,0.01
2013-10-19,62.7,56.7,41.6,50.1,46.9,40.8,98,71,49,29.99,29.75,3,1,15,0.00
2013-10-20,60.5,53.2,41.5,54.6,42.2,34.4,94,69,38,30.05,29.71,3,1,15,0.00
2013-10-21,64.6,50.2,36.9,46.0,41.2,36.1,98,75,39,30.14,30.01,3,0,15,0.00
2013-10-22,66.8,53.2,43.9,53.8,47.6,42.8,98,83,53,30.00,29.72,3,0,15,0.00
2013-10-23,48.0,42.9,36.5,42.7,38.1,35.4,96,84,67,29.80,29.61,2,0,15,0.01
2013-10-24,52.2,43.6,36.0,36.6,31.9,26.8,88,65,38,29.93,29.69,4,1,15,0.00
2013-10-25,48.9,41.0,32.4,34.4,30.1,28.3,90,66,47,30.20,29.93,4,1,15,0.00
2013-10-26,52.6,43.2,29.4,40.1,32.7,28.4,97,70,41,30.19,29.89,5,1,15,0.00
2013-10-27,55.9,47.4,34.5,40.3,34.6,29.3,91,63,40,30.10,29.83,4,1,15,0.01
2013-10-28,58.3,44.5,30.1,38.5,33.4,28.9,97,69,41,30.33,30.10,4,1,15,0.00
2013-10-29,50.4,41.8,34.9,33.3,29.1,25.6,84,62,42,30.43,30.34,3,1,15,0.00
2013-10-30,57.4,44.4,34.6,48.3,38.0,28.5,96,79,64,30.37,30.20,2,0,15,0.00
2013-10-31,62.6,51.1,38.2,60.0,49.6,37.4,98,95,87,30.24,29.81,4,1,15,0.15
2013-11-1,66.2,62.2,58.1,62.6,59.0,54.9,98,89,77,29.81,29.52,5,2,15,0.11
2013-11-2,66.0,56.1,47.3,55.3,46.3,40.6,94,72,41,29.74,29.59,2,0,15,0.00
2013-11-3,51.5,43.6,32.7,45.9,33.3,20.3,88,68,46,30.42,29.74,5,2,15,0.00
2013-11-4,42.1,34.5,28.0,25.5,19.6,14.9,78,56,33,30.69,30.42,6,2,15,0.00
2013-11-5,50.2,39.2,29.4,37.5,32.0,24.4,88,76,55,30.70,30.51,4,1,15,0.00
2013-11-6,58.4,49.0,37.5,53.5,44.4,36.1,97,85,62,30.52,30.07,4,1,15,0.00
2013-11-7,62.8,53.4,38.3,58.9,50.8,34.1,98,91,80,30.07,29.70,6,2,15,0.34
2013-11-8,47.4,40.0,34.8,34.0,30.4,24.2,92,70,48,30.14,29.85,6,2,15,0.00
2013-11-9,44.4,38.3,28.6,35.8,28.4,24.8,90,68,50,30.26,30.02,4,0,15,0.00
2013-11-10,58.5,46.7,40.0,41.7,37.6,34.3,83,71,47,30.02,29.74,5,1,15,0.01
2013-11-11,51.2,45.7,38.6,35.7,31.8,28.0,70,58,43,30.15,29.93,5,2,15,0.00
2013-11-12,49.9,35.4,26.7,38.6,26.7,17.0,94,71,56,30.22,29.90,6,3,15,0.05
2013-11-13,35.0,28.7,23.5,18.7,16.0,11.8,76,60,40,30.32,30.21,5,2,15,0.00
2013-11-14,49.3,40.5,27.8,26.9,20.7,15.7,73,47,31,30.23,30.10,3,1,15,0.00
2013-11-15,57.1,44.4,33.0,38.6,30.1,18.3,95,61,28,30.24,30.15,3,1,15,0.00
2013-11-16,58.4,45.7,35.4,41.9,37.1,30.9,96,75,42,30.32,30.22,3,0,15,0.00
2013-11-17,58.4,50.8,36.7,58.1,49.7,35.7,99,96,87,30.30,29.83,4,1,15,0.06
2013-11-18,63.5,57.8,46.8,61.3,47.1,32.2,100,71,41,29.83,29.57,6,2,15,0.60
2013-11-19,46.8,40.1,31.8,34.4,25.3,20.6,64,56,46,30.29,29.69,7,4,15,0.00
2013-11-20,39.1,31.3,23.4,21.4,18.7,13.7,83,61,39,30.63,30.30,7,3,15,0.00
2013-11-21,46.5,33.5,19.9,36.5,25.9,16.1,91,75,44,30.65,30.41,1,0,15,0.00
2013-11-22,51.2,45.9,40.3,50.3,44.1,36.7,98,93,86,30.40,29.85,1,0,15,0.10
2013-11-23,50.2,40.5,29.5,48.0,28.1,16.1,93,63,39,29.97,29.83,7,3,15,0.00
2013-11-24,29.4,23.2,20.4,17.1,6.4,0.9,60,48,36,30.27,29.87,9,5,17,0.00
2013-11-25,32.8,24.6,17.4,21.7,11.0,4.9,70,56,43,30.43,30.27,5,2,15,0.00
2013-11-26,43.5,36.3,32.5,43.0,26.6,20.2,98,69,46,30.34,29.96,4,1,15,0.27
2013-11-27,61.0,49.0,35.8,60.7,47.8,30.3,99,96,79,29.94,29.24,10,4,17,2.47
2013-11-28,36.3,29.3,21.5,31.2,18.1,10.5,85,64,42,30.47,29.57,7,3,15,0.00
2013-11-29,33.7,27.4,23.2,20.9,18.1,14.0,83,68,54,30.73,30.46,4,1,15,0.00
2013-11-30,32.2,24.8,15.9,26.7,16.8,10.5,88,72,43,30.78,30.41,4,1,15,0.00
2013-12-1,40.9,36.0,30.9,40.1,34.2,26.4,98,93,81,30.41,30.01,2,0,15,0.02
2013-12-2,41.7,35.8,30.8,40.1,34.9,30.0,98,97,88,30.01,29.90,2,0,15,0.01
2013-12-3,47.8,36.2,29.6,41.3,33.2,28.6,99,90,63,29.99,29.86,2,1,15,0.00
2013-12-4,48.1,35.5,27.0,35.4,31.3,26.3,98,86,57,30.18,29.98,2,0,15,0.01
2013-12-5,54.9,48.9,35.3,54.6,47.9,33.5,99,97,92,30.18,29.94,3,1,15,0.00
2013-12-6,55.1,46.1,36.7,54.8,44.8,35.7,99,95,88,30.13,29.87,4,2,15,0.52
2013-12-7,37.5,33.8,28.6,35.9,28.0,20.5,97,80,64,30.49,30.06,6,3,15,0.13
2013-12-8,31.0,27.8,20.6,23.0,20.3,18.2,93,74,63,30.61,30.44,5,1,15,0.00
2013-12-9,36.4,31.8,25.9,35.6,30.7,21.8,98,95,76,30.45,29.93,5,2,15,0.12
2013-12-10,33.1,30.8,24.4,32.6,29.9,22.0,98,96,91,30.05,29.80,2,0,15,0.00
2013-12-11,30.4,25.2,20.1,23.7,20.7,17.6,92,83,72,30.27,30.05,2,0,15,0.00
2013-12-12,24.2,18.5,10.4,18.5,10.7,6.4,87,72,50,30.31,30.12,5,1,15,0.00
2013-12-13,30.4,23.5,15.4,18.2,13.0,7.7,80,64,53,30.36,30.07,4,2,15,0.00
2013-12-14,26.3,18.6,14.7,25.1,13.5,10.1,95,81,61,30.56,30.02,8,4,15,0.00
2013-12-15,34.1,29.6,22.8,33.6,28.1,21.3,98,94,86,30.01,29.44,7,2,15,0.00
2013-12-16,28.3,23.3,10.1,23.7,15.7,7.8,95,73,47,30.23,29.78,4,1,15,0.00
2013-12-17,19.8,14.4,5.4,17.6,11.9,2.9,92,90,85,30.26,29.93,4,2,15,0.00
2013-12-18,33.0,24.4,15.8,23.0,19.0,13.0,91,80,66,30.14,29.90,6,2,15,0.00
2013-12-19,43.7,33.3,21.5,30.7,25.1,18.0,88,73,52,30.16,29.99,4,1,15,0.03
2013-12-20,50.8,38.7,29.4,38.2,32.8,27.6,94,81,56,30.12,29.97,4,0,15,0.10
2013-12-21,45.7,43.4,41.4,45.2,41.8,38.3,98,94,89,30.01,29.96,1,0,15,0.00
2013-12-24,29.4,27.8,25.3,19.8,16.7,11.4,67,63,55,30.26,30.21,7,4,15,0.00
2013-12-25,24.8,21.0,16.4,13.2,9.6,5.6,78,62,47,30.54,30.26,5,2,15,0.00
2013-12-26,35.6,27.1,21.7,30.0,21.5,13.1,92,79,69,30.47,30.12,3,0,15,0.00
2013-12-27,37.0,26.9,18.2,24.4,20.5,16.8,95,78,53,30.32,30.23,2,0,15,0.00
2013-12-28,48.4,34.5,22.0,30.7,25.9,19.5,95,73,44,30.26,30.04,3,1,15,0.00
2013-12-29,43.0,37.6,30.5,42.2,35.0,26.8,97,91,80,30.05,29.38,8,2,15,1.22
2013-12-30,41.0,31.2,17.1,37.3,24.8,7.0,97,78,55,30.18,29.59,5,2,15,0.00
2013-12-31,26.9,18.9,12.0,19.3,10.1,4.1,91,69,44,30.24,30.05,3,1,15,0.00
2014-1-1,29.0,23.2,13.7,19.1,12.9,8.5,87,66,43,30.41,30.23,4,1,15,0.00
2014-1-2,24.7,18.8,7.6,19.3,15.6,4.8,90,87,74,30.32,29.73,8,5,15,0.00